Michigan Logo

Blackman Charter, MI Single Family Real Estate Listings

51 Total Real Estate Listings * Click on table heading to sort
Date Posted Property Type Style Address Price Living Area Lot Size Price/Sq Ft.
2018-11-14 Single Family Manufactured With Land 3020 Chippewa Blackman Charter, MI 49202 $99,900 729 sq. ft. 10,019 sq. ft. $137
2018-11-14 Single Family 6520 Chrismac St Blackman Charter, MI 49201 $158,900 1,056 sq. ft. 13,068 sq. ft. $150
2018-11-14 Single Family 921 Bryant Ave Blackman Charter, MI 49202 $110,000 1,095 sq. ft. 24,394 sq. ft. $100
2018-11-14 Single Family Manufactured With Land 350 Oak Grove Blackman Charter, MI 49203 $84,900 1,152 sq. ft. 10,890 sq. ft. $74
2018-11-12 Single Family Contemporary 705 Wayne St Blackman Charter, MI 49202 $82,900 915 sq. ft. 7,405 sq. ft. $91
2018-11-12 Single Family 5127 Emerald Blackman Charter, MI 49201 $229,900 1,763 sq. ft. 16,553 sq. ft. $130
2018-11-10 Single Family 5260 Rives Junction Rd Blackman Charter, MI 49201 $129,900 1,408 sq. ft. 13,504 sq. ft. $92
2018-11-08 Single Family 4108 Kenzie Blvd Blackman Charter, MI 49201 $179,900 1,506 sq. ft. 14,810 sq. ft. $119
2018-11-07 Single Family Manufactured With Land 2730 Clark Blackman Charter, MI 49202 $129,900 1,976 sq. ft. 14,375 sq. ft. $66
2018-11-07 Single Family 3930 Clinton Rd Blackman Charter, MI 49201 $49,900 1,516 sq. ft. 33,977 sq. ft. $33
2018-11-02 Single Family 943 Concord Blvd Blackman Charter, MI 49202 $124,900 1,392 sq. ft. 8,712 sq. ft. $90
2018-10-31 Single Family 2229 Parnall Blackman Charter, MI 49201 $114,900 1,177 sq. ft. 20,909 sq. ft. $98
2018-10-29 Single Family 2517 Ganson Blackman Charter, MI 49202 $60,000 968 sq. ft. 4,356 sq. ft. $62
2018-10-27 Single Family 224 Lark Blackman Charter, MI 49202 $129,500 1,452 sq. ft. 13,068 sq. ft. $89
2018-10-26 Single Family 227 Cardinal Crest Blackman Charter, MI 49202 $139,900 1,416 sq. ft. 10,454 sq. ft. $99
2018-10-25 Single Family 3711 Balmars Blackman Charter, MI 49201 $105,000 1,116 sq. ft. 34,412 sq. ft. $94
2018-10-25 Single Family 3801 Morrill Rd Blackman Charter, MI 49201 $159,000 1,846 sq. ft. 60,548 sq. ft. $86
2018-10-24 Single Family 2950 Chippewa Trail Blackman Charter, MI 49202 $139,900 1,508 sq. ft. 17,860 sq. ft. $93
2018-10-24 Single Family 1160 Herbert J Blackman Charter, MI 49202 $143,500 1,742 sq. ft. 20,473 sq. ft. $82
2018-10-18 Single Family Raised Ranch 109 Mcconnell Blackman Charter, MI 49201 $117,900 960 sq. ft. 17,424 sq. ft. $123
2018-10-17 Single Family Bungalow 913 Longfellow Ave Blackman Charter, MI 49202 $97,000 984 sq. ft. 11,326 sq. ft. $99
2018-10-10 Single Family Raised Ranch 411 Max St Blackman Charter, MI 49203 $119,900 1,186 sq. ft. 24,394 sq. ft. $101
2018-10-05 Single Family 4226 Aspen Way Blackman Charter, MI 49201 $335,000 2,710 sq. ft. 13,068 sq. ft. $124
2018-10-05 Single Family Manufactured With Land 6692 Deweese Blackman Charter, MI 49201 $139,900 1,728 sq. ft. 87,120 sq. ft. $81
2018-10-02 Single Family 5073 Topaz Blackman Charter, MI 49201 $224,900 1,728 sq. ft. 15,246 sq. ft. $130
2018-10-01 Single Family 712 Bellevue Ave Blackman Charter, MI 49202 $89,500 1,200 sq. ft. 13,068 sq. ft. $75
2018-10-01 Single Family 313 Kenneth Blackman Charter, MI 49203 $124,000 1,714 sq. ft. 16,117 sq. ft. $72
2018-09-24 Single Family 542 Newell Ave Blackman Charter, MI 49202 $120,000 1,248 sq. ft. 8,712 sq. ft. $96
2018-09-22 Single Family 720 Maynard Blackman Charter, MI 49201 $159,900 1,957 sq. ft. 22,216 sq. ft. $82
2018-09-20 Single Family 411 Mcconnell Dr Blackman Charter, MI 49201 $124,900 1,072 sq. ft. 43,560 sq. ft. $117
2018-09-19 Single Family 5138 Stone River Rd Blackman Charter, MI 49201 $234,700 1,850 sq. ft. 19,166 sq. ft. $127
2018-09-15 Single Family 4852 Ginkgo Lane Blackman Charter, MI 49201 $224,900 1,584 sq. ft. 19,602 sq. ft. $142
2018-09-13 Single Family 2301 Dover Ave Blackman Charter, MI 49202 $94,900 925 sq. ft. 12,197 sq. ft. $103
2018-09-12 Single Family 6745 Old Wagon Tr Blackman Charter, MI 49201 $419,000 2,953 sq. ft. 609,840 sq. ft. $142
2018-09-07 Single Family Cape Cod 103 Cardinal Crest Blackman Charter, MI 49202 $64,900 1,068 sq. ft. 10,454 sq. ft. $61
2018-09-01 Single Family 118 Watts St Blackman Charter, MI 49203 $59,900 1,428 sq. ft. 5,663 sq. ft. $42
2018-08-31 Single Family 6727 Rives Junction Rd Blackman Charter, MI 49201 $179,900 1,607 sq. ft. 16,988 sq. ft. $112
2018-08-31 Single Family 522 Pershing Ave Blackman Charter, MI 49203 $107,900 1,304 sq. ft. 40,075 sq. ft. $83
2018-08-27 Single Family 2056 Parnall Blackman Charter, MI 49201 $149,500 864 sq. ft. 11,761 sq. ft. $173
2018-08-22 Single Family 3619 Carrington Blackman Charter, MI 49202 $219,900 1,344 sq. ft. 85,813 sq. ft. $164
2018-08-22 Single Family 6255 Mountie Way Blackman Charter, MI 49201 $208,900 1,728 sq. ft. 24,394 sq. ft. $121
2018-08-09 Single Family 308 Kenneth Blackman Charter, MI 49203 $96,000 768 sq. ft. 8,276 sq. ft. $125
2018-07-24 Single Family Manufactured With Land 235 Max St Blackman Charter, MI 49203 $98,000 1,200 sq. ft. 16,117 sq. ft. $82
2018-07-03 Single Family 4391 Scott Carpenter Blackman Charter, MI 49201 $199,900 2,557 sq. ft. 18,295 sq. ft. $78
2018-06-28 Single Family Manufactured With Land 439 Woodland Ave Blackman Charter, MI 49203 $59,900 1,324 sq. ft. 56,628 sq. ft. $45
2018-06-25 Single Family 1333 Cunningham Blackman Charter, MI 49201 $139,900 1,200 sq. ft. 14,810 sq. ft. $117
2018-06-14 Single Family 4120 Kenzie Blvd Blackman Charter, MI 49201 $159,900 1,530 sq. ft. 14,810 sq. ft. $105
2018-05-23 Single Family 3216 Seymour Ave Blackman Charter, MI 49201 $149,900 1,680 sq. ft. 41,382 sq. ft. $89
2018-04-25 Single Family Farmhouse 2309 Wildwood Ave Blackman Charter, MI 49202 $60,000 2,005 sq. ft. 18,731 sq. ft. $30
2018-01-31 Single Family 5219 Lansing Ave Blackman Charter, MI 49201 $465,000 4,042,803 sq. ft.
2017-09-25 Single Family 4585 Cooper Blackman Charter, MI 49201 $219,900 1,460 sq. ft. 195,584 sq. ft. $151